Time;durP1;ratioP1;P1;durP2;ratioP2;P2;SDS_P1;SDS_P2;PMS_P1;PMS_P2;Temp;Humidity;BMP_temperature;BMP_pressure;BME280_temperature;BME280_humidity;BME280_pressure;Samples;Min_cycle;Max_cycle;Signal;HPM_P1;HPM_P2
2022/10/24 00:00:05;;;;;;;7.35;1.90;;;15.30;99.90;;;;;;5051949;28;20494;-64
2022/10/24 00:02:30;;;;;;;7.20;1.98;;;15.30;99.90;;;;;;5049368;28;20400;-64
2022/10/24 00:04:56;;;;;;;8.93;1.63;;;15.30;99.90;;;;;;5051775;28;20044;-64
2022/10/24 00:07:23;;;;;;;7.30;1.95;;;15.30;99.90;;;;;;5049095;28;20212;-64
2022/10/24 00:09:49;;;;;;;4.50;1.70;;;15.30;99.90;;;;;;5051314;28;20132;-64
2022/10/24 00:12:16;;;;;;;7.13;2.00;;;15.30;99.90;;;;;;5046338;28;20128;-64
2022/10/24 00:14:41;;;;;;;4.93;1.60;;;15.20;99.90;;;;;;5043644;28;20041;-64
2022/10/24 00:17:07;;;;;;;5.43;2.10;;;15.30;99.90;;;;;;5047852;28;20030;-64
2022/10/24 00:19:33;;;;;;;5.43;1.95;;;15.30;99.90;;;;;;5050010;28;20064;-64
2022/10/24 00:21:58;;;;;;;4.03;2.00;;;15.30;99.90;;;;;;5051075;28;20254;-64
2022/10/24 00:24:24;;;;;;;5.97;2.30;;;15.30;99.90;;;;;;5039391;28;20032;-64
2022/10/24 00:26:50;;;;;;;6.47;2.33;;;15.30;99.90;;;;;;5038865;28;20041;-64
2022/10/24 00:29:16;;;;;;;6.43;2.60;;;15.30;99.90;;;;;;5049915;28;20398;-64
2022/10/24 00:31:42;;;;;;;5.25;2.20;;;15.20;99.90;;;;;;5045207;28;20044;-64
2022/10/24 00:34:08;;;;;;;7.72;2.22;;;15.20;99.90;;;;;;5040287;28;20040;-64
2022/10/24 00:36:34;;;;;;;6.60;2.03;;;15.20;99.90;;;;;;5046038;28;20042;-64
2022/10/24 00:38:59;;;;;;;4.25;2.00;;;15.20;99.90;;;;;;5042041;28;20044;-64
2022/10/24 00:41:35;;;;;;;6.40;2.42;;;15.20;99.90;;;;;;5044335;28;20049;-64
2022/10/24 00:44:13;;;;;;;5.78;2.20;;;15.20;99.90;;;;;;5066409;28;20584;-64
2022/10/24 00:46:42;;;;;;;7.47;2.35;;;15.20;99.90;;;;;;5049989;28;20037;-63
2022/10/24 00:49:13;;;;;;;6.60;2.78;;;15.20;99.90;;;;;;5046870;28;20029;-65
2022/10/24 00:51:39;;;;;;;10.68;2.65;;;15.20;99.90;;;;;;5045328;28;20040;-66
2022/10/24 00:54:08;;;;;;;5.00;2.70;;;15.20;99.90;;;;;;5048023;28;20527;-63
2022/10/24 00:56:38;;;;;;;10.80;2.72;;;15.20;99.90;;;;;;5049625;28;20029;-65
2022/10/24 00:59:07;;;;;;;5.80;2.75;;;15.30;99.90;;;;;;5050812;28;20033;-65
2022/10/24 01:01:33;;;;;;;6.88;2.60;;;15.30;99.90;;;;;;5039048;28;20444;-65
2022/10/24 01:04:00;;;;;;;8.02;3.13;;;15.30;99.90;;;;;;5042243;28;20048;-64
2022/10/24 01:06:45;;;;;;;9.73;3.20;;;15.30;99.90;;;;;;5040713;28;20128;-64
2022/10/24 01:09:27;;;;;;;6.72;2.90;;;15.30;99.90;;;;;;5035196;28;20049;-64
2022/10/24 01:12:20;;;;;;;7.80;2.90;;;15.30;99.90;;;;;;5034241;28;20500;-66
2022/10/24 01:14:50;;;;;;;;;;;15.30;99.90;;;;;;5064444;28;20037;-65
2022/10/24 01:17:30;;;;;;;6.95;2.65;;;15.40;99.90;;;;;;5048496;28;20437;-63
2022/10/24 01:20:16;;;;;;;6.28;2.90;;;15.30;99.90;;;;;;5046850;28;20041;-66
2022/10/24 01:23:22;;;;;;;23.10;3.45;;;15.30;99.90;;;;;;5049762;28;20542;-63
2022/10/24 01:26:18;;;;;;;7.07;3.10;;;15.30;99.90;;;;;;5047388;28;20051;-64
2022/10/24 01:29:15;;;;;;;8.95;3.00;;;15.30;99.90;;;;;;5048292;28;20423;-63
2022/10/24 01:31:54;;;;;;;8.27;3.20;;;15.30;99.90;;;;;;5037540;28;20411;-63
2022/10/24 01:34:39;;;;;;;7.97;2.58;;;15.30;99.90;;;;;;5039084;28;20091;-64
2022/10/24 01:37:12;;;;;;;9.88;2.78;;;15.20;99.90;;;;;;5045770;28;20037;-64
2022/10/24 01:39:49;;;;;;;6.43;2.47;;;15.20;99.90;;;;;;5042745;28;20392;-64
2022/10/24 01:42:18;;;;;;;9.95;2.38;;;15.10;99.90;;;;;;5043797;28;20414;-64
2022/10/24 01:44:49;;;;;;;9.63;2.83;;;15.20;99.90;;;;;;5050314;28;20040;-63
2022/10/24 01:47:26;;;;;;;7.18;2.58;;;15.20;99.90;;;;;;5049912;28;20048;-64
2022/10/24 01:50:03;;;;;;;10.80;2.92;;;15.20;99.90;;;;;;5039326;28;20056;-63
2022/10/24 01:52:33;;;;;;;8.80;3.33;;;15.20;99.90;;;;;;5040656;28;20043;-63
2022/10/24 01:54:59;;;;;;;7.45;2.65;;;15.20;99.90;;;;;;5050848;28;20044;-64
2022/10/24 01:57:27;;;;;;;9.82;3.28;;;15.10;99.90;;;;;;5050485;28;20114;-63
2022/10/24 01:59:53;;;;;;;11.48;2.50;;;15.10;99.90;;;;;;5043631;28;20047;-63
2022/10/24 02:02:37;;;;;;;8.25;2.42;;;15.10;99.90;;;;;;5042940;28;20033;-63
2022/10/24 02:05:19;;;;;;;8.00;2.92;;;15.20;99.90;;;;;;5039916;28;20065;-64
2022/10/24 02:07:47;;;;;;;;;;;15.20;99.90;;;;;;5048247;28;20043;-63
2022/10/24 02:10:19;;;;;;;6.03;2.83;;;15.10;99.90;;;;;;5041826;28;19971;-63
2022/10/24 02:12:51;;;;;;;5.25;2.45;;;15.10;99.90;;;;;;5034276;28;20038;-62
2022/10/24 02:15:25;;;;;;;;;;;15.00;99.90;;;;;;5043097;28;20045;-63
2022/10/24 02:17:51;;;;;;;12.20;2.67;;;15.00;99.90;;;;;;5039256;28;19921;-63
2022/10/24 02:20:18;;;;;;;10.07;3.00;;;15.00;99.90;;;;;;5038206;28;20030;-64
2022/10/24 02:22:56;;;;;;;7.18;2.40;;;15.00;99.90;;;;;;5048637;28;20480;-63
2022/10/24 02:25:29;;;;;;;8.55;2.63;;;14.90;99.90;;;;;;5044215;28;20107;-63
2022/10/24 02:28:07;;;;;;;8.40;2.67;;;14.90;99.90;;;;;;5036285;28;20054;-62
2022/10/24 02:30:38;;;;;;;11.10;2.95;;;15.00;99.90;;;;;;5047857;28;20041;-66
2022/10/24 02:33:04;;;;;;;6.32;2.72;;;15.00;99.90;;;;;;5042877;28;20041;-63
2022/10/24 02:35:33;;;;;;;8.98;2.85;;;14.90;99.90;;;;;;5041653;28;20059;-64
2022/10/24 02:38:10;;;;;;;6.68;2.80;;;14.90;99.90;;;;;;5040586;28;20049;-63
2022/10/24 02:40:36;;;;;;;6.32;2.53;;;14.90;99.90;;;;;;5035628;28;20033;-64
2022/10/24 02:43:03;;;;;;;12.48;2.85;;;14.90;99.90;;;;;;5032776;28;20121;-63
2022/10/24 02:45:30;;;;;;;10.70;2.90;;;14.90;99.90;;;;;;5046956;28;20048;-63
2022/10/24 02:48:01;;;;;;;7.43;2.50;;;14.90;99.90;;;;;;5045737;28;20083;-63
2022/10/24 02:50:27;;;;;;;4.83;2.30;;;14.90;99.90;;;;;;5043766;28;20033;-63
2022/10/24 02:52:53;;;;;;;6.13;2.40;;;15.00;99.90;;;;;;5048108;28;20037;-63
2022/10/24 02:55:18;;;;;;;7.82;2.75;;;14.90;99.90;;;;;;5045154;28;20040;-63
2022/10/24 02:57:44;;;;;;;10.05;2.88;;;15.00;99.90;;;;;;5050451;28;20041;-63
2022/10/24 03:00:10;;;;;;;11.80;2.88;;;15.00;99.90;;;;;;5044718;28;20032;-63
2022/10/24 03:02:36;;;;;;;7.65;2.67;;;15.00;99.90;;;;;;5050226;28;20059;-63
2022/10/24 03:05:01;;;;;;;8.75;2.83;;;15.00;99.90;;;;;;5053102;28;20517;-65
2022/10/24 03:07:27;;;;;;;12.95;2.67;;;15.00;99.90;;;;;;5042271;28;20036;-63
2022/10/24 03:09:52;;;;;;;10.73;3.08;;;15.00;99.90;;;;;;5043574;28;20040;-62
2022/10/24 03:12:18;;;;;;;7.13;2.40;;;15.00;99.90;;;;;;5047311;28;20040;-63
2022/10/24 03:14:44;;;;;;;12.48;3.22;;;15.00;99.90;;;;;;5042431;28;20040;-64
2022/10/24 03:17:09;;;;;;;9.95;2.90;;;15.00;99.90;;;;;;5044962;28;20030;-65
2022/10/24 03:19:35;;;;;;;6.95;2.70;;;15.10;99.90;;;;;;5040196;28;20037;-63
2022/10/24 03:22:01;;;;;;;7.28;2.90;;;15.00;99.90;;;;;;5053053;28;20037;-63
2022/10/24 03:24:26;;;;;;;7.78;2.83;;;15.10;99.90;;;;;;5043503;28;20051;-63
2022/10/24 03:26:52;;;;;;;6.10;2.35;;;15.10;99.90;;;;;;5051031;28;20033;-66
2022/10/24 03:29:18;;;;;;;8.77;2.88;;;15.10;99.90;;;;;;5035323;28;20045;-63
2022/10/24 03:31:45;;;;;;;8.35;2.72;;;15.10;99.90;;;;;;5049126;28;20053;-63
2022/10/24 03:34:10;;;;;;;7.85;2.70;;;15.10;99.90;;;;;;5043854;28;20063;-63
2022/10/24 03:36:36;;;;;;;8.05;2.50;;;15.20;99.90;;;;;;5042205;28;20467;-66
2022/10/24 03:39:02;;;;;;;9.18;2.58;;;15.20;99.90;;;;;;5052878;28;20037;-63
2022/10/24 03:41:29;;;;;;;6.80;2.75;;;15.20;99.90;;;;;;5049480;28;20412;-65
2022/10/24 03:43:54;;;;;;;9.23;2.90;;;15.20;99.90;;;;;;5043844;28;20029;-66
2022/10/24 03:46:20;;;;;;;9.23;2.80;;;15.20;99.90;;;;;;5066608;28;20543;-64
2022/10/24 03:48:45;;;;;;;9.98;3.05;;;15.20;99.90;;;;;;5041267;28;20514;-64
2022/10/24 03:51:11;;;;;;;9.02;2.90;;;15.20;99.90;;;;;;5052158;28;20598;-64
2022/10/24 03:53:37;;;;;;;7.57;2.80;;;15.20;99.90;;;;;;5052892;28;20063;-63
2022/10/24 03:56:03;;;;;;;9.68;2.85;;;15.10;99.90;;;;;;5052123;28;20041;-66
2022/10/24 03:58:28;;;;;;;9.05;2.28;;;15.20;99.90;;;;;;5049385;28;20041;-64
2022/10/24 04:00:57;;;;;;;8.57;2.58;;;15.20;99.90;;;;;;5049061;28;20501;-63
2022/10/24 04:03:23;;;;;;;8.07;2.53;;;15.10;99.90;;;;;;5047061;28;20044;-64
2022/10/24 04:05:48;;;;;;;6.30;2.80;;;15.10;99.90;;;;;;5045513;28;20036;-64
2022/10/24 04:08:14;;;;;;;10.55;2.60;;;15.00;99.90;;;;;;5042692;28;20045;-63
2022/10/24 04:10:39;;;;;;;7.20;2.47;;;15.00;99.90;;;;;;5043919;28;20079;-64
2022/10/24 04:13:05;;;;;;;11.43;2.70;;;15.00;99.90;;;;;;5032544;28;20128;-65
2022/10/24 04:15:31;;;;;;;9.55;2.63;;;15.00;99.90;;;;;;5045484;28;20036;-62
2022/10/24 04:17:57;;;;;;;5.97;2.47;;;14.90;99.90;;;;;;5035368;28;20037;-63
2022/10/24 04:20:22;;;;;;;10.27;2.58;;;15.00;99.90;;;;;;5050048;28;20497;-63
2022/10/24 04:22:48;;;;;;;5.85;2.47;;;14.90;99.90;;;;;;5050501;28;20460;-63
2022/10/24 04:25:14;;;;;;;6.75;2.83;;;14.90;99.90;;;;;;5037081;28;20423;-62
2022/10/24 04:27:40;;;;;;;6.97;2.60;;;14.90;99.90;;;;;;5042240;28;20399;-63
2022/10/24 04:30:11;;;;;;;6.63;2.55;;;14.80;99.90;;;;;;5040384;28;20034;-63
2022/10/24 04:32:36;;;;;;;7.90;2.65;;;14.80;99.90;;;;;;5040366;28;20032;-63
2022/10/24 04:35:03;;;;;;;10.02;2.55;;;14.80;99.90;;;;;;5043454;28;20047;-63
2022/10/24 04:37:28;;;;;;;6.88;2.33;;;14.80;99.90;;;;;;5049597;28;20049;-63
2022/10/24 04:39:54;;;;;;;8.27;2.60;;;14.80;99.90;;;;;;5041369;28;20141;-63
2022/10/24 04:42:22;;;;;;;7.30;2.63;;;14.80;99.90;;;;;;5034888;28;20368;-64
2022/10/24 04:44:47;;;;;;;8.13;2.40;;;14.80;99.90;;;;;;5051619;28;20037;-63
2022/10/24 04:47:13;;;;;;;6.40;2.30;;;14.80;99.90;;;;;;5039474;28;20033;-62
2022/10/24 04:49:39;;;;;;;8.77;2.45;;;14.70;99.90;;;;;;5047426;28;20029;-62
2022/10/24 04:52:05;;;;;;;5.32;1.98;;;14.80;99.90;;;;;;5039274;28;20048;-62
2022/10/24 04:54:30;;;;;;;6.40;2.22;;;14.80;99.90;;;;;;5039491;28;20029;-63
2022/10/24 04:56:56;;;;;;;6.68;2.10;;;14.80;99.90;;;;;;5040825;28;20040;-62
2022/10/24 04:59:22;;;;;;;7.00;2.05;;;14.80;99.90;;;;;;5045069;28;20029;-62
2022/10/24 05:01:47;;;;;;;9.07;2.58;;;14.80;99.90;;;;;;5046998;28;20514;-62
2022/10/24 05:04:13;;;;;;;7.53;2.00;;;14.80;99.90;;;;;;5037803;28;20449;-63
2022/10/24 05:06:38;;;;;;;10.13;2.08;;;14.80;99.90;;;;;;5044801;28;20138;-65
2022/10/24 05:09:04;;;;;;;7.75;2.20;;;14.80;99.90;;;;;;5040543;28;20060;-62
2022/10/24 05:11:30;;;;;;;6.30;2.22;;;14.80;99.90;;;;;;5045361;28;20033;-62
2022/10/24 05:13:56;;;;;;;5.70;1.92;;;14.80;99.90;;;;;;5046448;28;20403;-62
2022/10/24 05:16:22;;;;;;;8.27;2.08;;;14.80;99.90;;;;;;5047161;28;20038;-62
2022/10/24 05:18:48;;;;;;;7.43;2.10;;;14.80;99.90;;;;;;5046360;28;20052;-62
2022/10/24 05:21:14;;;;;;;10.32;2.25;;;14.80;99.90;;;;;;5038832;28;20028;-63
2022/10/24 05:23:40;;;;;;;6.82;1.90;;;14.70;99.90;;;;;;5043944;28;20059;-63
2022/10/24 05:26:06;;;;;;;8.07;2.25;;;14.70;99.90;;;;;;5042569;28;20491;-63
2022/10/24 05:28:31;;;;;;;5.15;1.77;;;14.70;99.90;;;;;;5049048;28;20045;-65
2022/10/24 05:30:57;;;;;;;9.02;2.00;;;14.70;99.90;;;;;;5043331;28;20047;-62
2022/10/24 05:33:23;;;;;;;5.13;1.80;;;14.70;99.90;;;;;;5049140;28;20124;-63
2022/10/24 05:35:50;;;;;;;8.57;1.90;;;14.70;99.90;;;;;;5043931;28;20112;-64
2022/10/24 05:38:15;;;;;;;8.00;2.50;;;14.70;99.90;;;;;;5044999;28;20125;-64
2022/10/24 05:40:41;;;;;;;11.45;2.30;;;14.70;99.90;;;;;;5047043;28;20116;-64
2022/10/24 05:43:07;;;;;;;11.52;2.17;;;14.70;99.90;;;;;;5049554;28;20037;-63
2022/10/24 05:45:33;;;;;;;7.72;2.00;;;14.80;99.90;;;;;;5047790;28;20029;-62
2022/10/24 05:48:00;;;;;;;9.23;2.05;;;14.80;99.90;;;;;;5026322;28;20036;-63
2022/10/24 05:50:26;;;;;;;6.78;1.63;;;14.80;99.90;;;;;;5047674;28;20112;-66
2022/10/24 05:52:52;;;;;;;6.05;2.10;;;14.80;99.90;;;;;;5041456;28;20062;-63
2022/10/24 05:55:17;;;;;;;8.48;2.65;;;14.80;99.90;;;;;;5061497;28;20037;-64
2022/10/24 05:57:43;;;;;;;7.20;2.15;;;14.80;99.90;;;;;;5048574;28;20047;-64
2022/10/24 06:00:12;;;;;;;6.22;2.00;;;14.80;99.90;;;;;;5041986;28;20052;-63
2022/10/24 06:02:39;;;;;;;7.03;2.10;;;14.80;99.90;;;;;;5041548;28;20403;-66
2022/10/24 06:05:05;;;;;;;6.50;1.92;;;14.80;99.90;;;;;;5056219;28;20742;-66
2022/10/24 06:07:30;;;;;;;5.18;1.73;;;14.80;99.90;;;;;;5036593;28;20037;-64
2022/10/24 06:09:57;;;;;;;6.15;1.80;;;14.70;99.90;;;;;;5038081;28;20044;-64
2022/10/24 06:12:23;;;;;;;8.13;1.80;;;14.80;99.90;;;;;;5057847;28;20140;-64
2022/10/24 06:14:48;;;;;;;3.25;1.50;;;14.70;99.90;;;;;;5049818;28;20403;-67
2022/10/24 06:17:14;;;;;;;4.55;1.73;;;14.80;99.90;;;;;;5043142;28;20050;-63
2022/10/24 06:19:40;;;;;;;5.32;1.88;;;14.80;99.90;;;;;;5048081;28;20111;-63
2022/10/24 06:22:07;;;;;;;6.70;2.03;;;14.80;99.90;;;;;;5047369;28;20036;-65
2022/10/24 06:24:37;;;;;;;6.93;1.92;;;14.80;99.90;;;;;;5047765;28;20486;-65
2022/10/24 06:27:03;;;;;;;6.93;2.17;;;14.80;99.90;;;;;;5043005;28;20029;-63
2022/10/24 06:29:29;;;;;;;7.43;2.17;;;14.80;99.90;;;;;;5044390;28;20047;-64
2022/10/24 06:31:55;;;;;;;8.40;2.00;;;14.80;99.90;;;;;;5038075;28;20494;-67
2022/10/24 06:34:20;;;;;;;6.53;1.80;;;14.80;99.90;;;;;;5035278;28;20029;-63
2022/10/24 06:36:46;;;;;;;5.88;1.90;;;14.80;99.90;;;;;;5044111;28;20065;-63
2022/10/24 06:39:12;;;;;;;5.65;1.90;;;14.80;99.90;;;;;;5046196;28;20434;-63
2022/10/24 06:41:37;;;;;;;5.85;2.28;;;14.80;99.90;;;;;;5044024;28;20029;-65
2022/10/24 06:44:04;;;;;;;6.80;2.00;;;14.80;99.90;;;;;;5044151;28;20084;-64
2022/10/24 06:46:29;;;;;;;7.78;2.03;;;14.80;99.90;;;;;;5040494;28;20033;-67
2022/10/24 06:48:55;;;;;;;11.45;2.00;;;14.80;99.90;;;;;;5042348;28;20033;-62
2022/10/24 06:51:23;;;;;;;5.85;1.60;;;14.80;99.90;;;;;;5039216;28;20040;-63
2022/10/24 06:53:49;;;;;;;4.40;1.83;;;14.80;99.90;;;;;;5046934;28;20095;-62
2022/10/24 06:56:17;;;;;;;7.72;2.03;;;14.90;99.90;;;;;;5049029;28;20037;-62
2022/10/24 06:58:43;;;;;;;6.22;2.10;;;14.90;99.90;;;;;;5033894;28;20041;-63
2022/10/24 07:01:11;;;;;;;9.20;2.38;;;14.90;99.90;;;;;;5038879;28;20033;-63
2022/10/24 07:03:36;;;;;;;6.60;1.90;;;14.90;99.90;;;;;;5040305;28;20131;-63
2022/10/24 07:06:29;;;;;;;4.63;1.50;;;14.90;99.90;;;;;;5039707;28;20049;-63
2022/10/24 07:08:57;;;;;;;9.35;1.92;;;14.90;99.90;;;;;;5038120;28;20063;-63
2022/10/24 07:11:23;;;;;;;6.65;1.73;;;15.00;99.90;;;;;;5043459;28;20039;-62
2022/10/24 07:13:49;;;;;;;8.07;1.80;;;15.00;99.90;;;;;;5042850;28;20076;-62
2022/10/24 07:16:15;;;;;;;6.00;2.30;;;15.00;99.90;;;;;;5046525;28;20095;-66
2022/10/24 07:18:42;;;;;;;8.93;1.75;;;15.00;99.90;;;;;;5047039;28;20503;-63
2022/10/24 07:21:14;;;;;;;6.20;1.95;;;15.00;99.90;;;;;;5047333;28;20040;-62
2022/10/24 07:23:40;;;;;;;10.95;2.10;;;15.10;99.90;;;;;;5046106;28;20123;-63
2022/10/24 07:26:08;;;;;;;6.43;2.03;;;15.10;99.90;;;;;;5044396;28;20148;-62
2022/10/24 07:28:34;;;;;;;5.15;1.83;;;15.10;99.90;;;;;;5046886;28;20029;-62
2022/10/24 07:31:00;;;;;;;6.70;2.17;;;15.20;99.90;;;;;;5044168;28;20037;-63
2022/10/24 07:33:26;;;;;;;7.53;1.80;;;15.20;99.90;;;;;;5047220;28;20044;-62
2022/10/24 07:35:52;;;;;;;6.65;1.80;;;15.20;99.90;;;;;;5044682;28;20376;-63
2022/10/24 07:38:18;;;;;;;11.95;1.98;;;15.30;99.90;;;;;;5043436;28;20037;-63
2022/10/24 07:40:43;;;;;;;8.88;1.90;;;15.30;99.90;;;;;;5044468;28;20557;-63
2022/10/24 07:43:09;;;;;;;8.25;1.98;;;15.30;99.90;;;;;;5042810;28;20041;-66
2022/10/24 07:45:36;;;;;;;9.00;1.70;;;15.40;99.90;;;;;;5050100;28;20060;-62
2022/10/24 07:48:04;;;;;;;6.68;2.33;;;15.40;99.90;;;;;;5049047;28;20403;-62
2022/10/24 07:50:30;;;;;;;11.05;2.30;;;15.50;99.90;;;;;;5047375;28;20171;-63
2022/10/24 07:52:55;;;;;;;7.30;2.00;;;15.50;99.90;;;;;;5045127;28;20132;-65
2022/10/24 07:55:21;;;;;;;7.32;1.80;;;15.60;99.90;;;;;;5048770;28;20043;-63
2022/10/24 07:57:46;;;;;;;9.02;2.33;;;15.60;99.90;;;;;;5047172;28;20517;-65
2022/10/24 08:00:13;;;;;;;6.95;1.83;;;15.70;99.90;;;;;;5045953;28;20029;-63
2022/10/24 08:02:39;;;;;;;8.05;1.70;;;15.70;99.90;;;;;;5047868;28;20040;-63
2022/10/24 08:05:05;;;;;;;8.35;1.77;;;15.80;99.90;;;;;;5044941;28;20048;-63
2022/10/24 08:07:30;;;;;;;13.32;2.03;;;15.80;99.90;;;;;;5046742;28;20033;-63
2022/10/24 08:09:56;;;;;;;8.27;2.17;;;15.80;99.90;;;;;;5040408;28;20056;-65
2022/10/24 08:12:21;;;;;;;10.07;2.33;;;15.90;99.90;;;;;;5047787;28;20056;-63
2022/10/24 08:14:47;;;;;;;5.80;1.80;;;15.90;99.90;;;;;;5052214;28;20521;-63
2022/10/24 08:17:16;;;;;;;7.22;1.90;;;16.00;99.90;;;;;;5044804;28;20036;-63
2022/10/24 08:19:42;;;;;;;14.68;2.35;;;16.00;99.90;;;;;;5048020;28;20312;-63
2022/10/24 08:22:08;;;;;;;7.65;2.03;;;16.10;99.90;;;;;;5042008;28;20045;-67
2022/10/24 08:24:34;;;;;;;7.90;1.95;;;16.20;99.90;;;;;;5044967;28;20075;-66
2022/10/24 08:27:00;;;;;;;7.82;1.70;;;16.10;99.90;;;;;;5049892;28;20072;-63
2022/10/24 08:29:25;;;;;;;10.85;1.70;;;16.20;99.90;;;;;;5051883;28;20028;-63
2022/10/24 08:31:52;;;;;;;10.98;2.72;;;16.20;99.90;;;;;;5049702;28;20049;-63
2022/10/24 08:34:18;;;;;;;8.48;1.75;;;16.20;99.90;;;;;;5041534;28;20040;-63
2022/10/24 08:36:45;;;;;;;7.53;2.00;;;16.20;99.90;;;;;;5044736;28;20307;-62
2022/10/24 08:39:10;;;;;;;10.93;1.92;;;16.20;99.90;;;;;;5051676;28;20399;-66
2022/10/24 08:41:46;;;;;;;10.35;1.85;;;16.30;99.90;;;;;;5041678;28;20052;-63
2022/10/24 08:44:15;;;;;;;7.65;1.98;;;16.30;99.90;;;;;;5048531;28;20070;-62
2022/10/24 08:46:57;;;;;;;9.32;2.03;;;16.30;99.90;;;;;;5041171;28;20044;-66
2022/10/24 08:49:28;;;;;;;8.30;2.70;;;16.20;99.90;;;;;;5047042;28;20672;-63
2022/10/24 08:51:56;;;;;;;7.13;1.80;;;16.20;99.90;;;;;;5045467;28;20112;-63
2022/10/24 08:54:28;;;;;;;8.70;1.92;;;16.30;99.90;;;;;;5048738;28;20052;-63
2022/10/24 08:56:56;;;;;;;8.73;1.92;;;16.30;99.90;;;;;;5044011;28;20033;-65
2022/10/24 08:59:26;;;;;;;10.45;1.90;;;16.30;99.90;;;;;;5043343;28;20549;-64
2022/10/24 09:02:04;;;;;;;6.57;1.40;;;16.30;99.90;;;;;;5048907;28;20081;-63
2022/10/24 09:04:38;;;;;;;9.25;1.85;;;16.30;99.90;;;;;;5044436;28;20044;-64
2022/10/24 09:07:04;;;;;;;9.63;2.10;;;16.30;99.90;;;;;;5042880;28;20124;-66
2022/10/24 09:09:41;;;;;;;12.05;2.10;;;16.30;99.90;;;;;;5051119;28;20372;-63
2022/10/24 09:12:09;;;;;;;8.43;2.08;;;16.30;99.90;;;;;;5039808;28;20050;-63
2022/10/24 09:14:41;;;;;;;9.30;2.00;;;16.20;99.90;;;;;;5035724;28;20041;-63
2022/10/24 09:17:13;;;;;;;11.23;1.70;;;16.30;99.90;;;;;;5042849;28;20056;-63
2022/10/24 09:19:39;;;;;;;9.75;2.08;;;16.30;99.90;;;;;;5043767;28;20392;-64
2022/10/24 09:22:08;;;;;;;8.70;1.67;;;16.30;99.90;;;;;;5043936;28;20044;-63
2022/10/24 09:24:58;;;;;;;12.90;2.88;;;16.40;99.90;;;;;;5045151;28;20517;-63
2022/10/24 09:27:28;;;;;;;6.22;1.80;;;16.40;99.90;;;;;;5046922;28;20280;-65
2022/10/24 09:29:55;;;;;;;7.03;1.58;;;16.40;99.90;;;;;;5042629;28;20554;-64
2022/10/24 09:32:25;;;;;;;6.32;1.58;;;16.40;99.90;;;;;;5042779;28;20766;-65
2022/10/24 09:34:51;;;;;;;6.57;1.80;;;16.40;99.90;;;;;;5050366;28;20041;-64
2022/10/24 09:37:44;;;;;;;8.30;2.00;;;16.40;99.90;;;;;;5038005;28;20128;-64
2022/10/24 09:40:26;;;;;;;9.85;1.80;;;16.40;99.90;;;;;;5039326;28;20367;-64
2022/10/24 09:43:04;;;;;;;8.77;1.55;;;16.30;99.90;;;;;;5040282;28;20131;-64
2022/10/24 09:45:38;;;;;;;9.75;1.80;;;16.30;99.90;;;;;;5042611;28;20052;-65
2022/10/24 09:48:18;;;;;;;7.70;1.88;;;16.30;99.90;;;;;;5037399;28;20049;-64
2022/10/24 09:50:46;;;;;;;4.55;1.52;;;16.40;99.90;;;;;;5049061;28;20544;-64
2022/10/24 09:53:39;;;;;;;8.05;1.83;;;16.50;99.90;;;;;;5039572;28;20543;-64
2022/10/24 09:56:15;;;;;;;5.85;1.70;;;16.50;99.90;;;;;;5043290;28;20080;-64
2022/10/24 09:58:41;;;;;;;6.20;1.40;;;16.60;99.90;;;;;;5046046;28;20033;-64
2022/10/24 10:01:19;;;;;;;4.70;1.38;;;16.70;99.90;;;;;;5045590;28;20443;-64
2022/10/24 10:04:03;;;;;;;4.25;1.30;;;16.70;99.90;;;;;;5037103;28;20045;-64
2022/10/24 10:06:31;;;;;;;9.57;1.58;;;16.60;99.90;;;;;;5038135;28;20095;-64
2022/10/24 10:08:57;;;;;;;4.13;1.25;;;16.60;99.90;;;;;;5043179;28;20036;-64
2022/10/24 10:11:29;;;;;;;5.00;1.40;;;16.50;99.90;;;;;;5042836;28;20033;-64
2022/10/24 10:13:56;;;;;;;5.28;1.30;;;16.40;99.90;;;;;;5043373;28;20084;-64
2022/10/24 10:16:35;;;;;;;6.43;1.38;;;16.40;99.90;;;;;;5042264;28;20086;-64
2022/10/24 10:19:14;;;;;;;4.30;1.30;;;16.40;99.90;;;;;;5036449;28;20041;-64
2022/10/24 10:22:00;;;;;;;8.60;1.45;;;16.50;99.90;;;;;;5041549;28;20041;-64
2022/10/24 10:24:39;;;;;;;7.03;1.60;;;16.40;99.90;;;;;;5043997;28;20499;-64
2022/10/24 10:27:32;;;;;;;5.88;1.33;;;16.40;99.90;;;;;;5044847;28;20163;-64
2022/10/24 10:30:13;;;;;;;5.38;1.40;;;16.30;99.90;;;;;;5036081;28;20080;-64
2022/10/24 10:32:57;;;;;;;8.48;1.70;;;16.30;99.90;;;;;;5037799;28;20119;-64
2022/10/24 10:35:38;;;;;;;6.32;1.65;;;16.30;99.90;;;;;;5035439;28;20407;-64
2022/10/24 10:38:09;;;;;;;6.68;1.40;;;16.40;99.90;;;;;;5042613;28;20120;-64
2022/10/24 10:40:47;;;;;;;7.53;1.75;;;16.40;99.90;;;;;;5036435;28;20120;-64
2022/10/24 10:43:48;;;;;;;4.15;1.50;;;16.50;99.90;;;;;;5042753;28;20069;-64
2022/10/24 10:46:31;;;;;;;4.65;1.70;;;16.60;99.90;;;;;;5007267;28;20049;-64
2022/10/24 10:48:59;;;;;;;16.15;1.92;;;16.80;99.90;;;;;;5039477;28;20121;-64
2022/10/24 10:51:47;;;;;;;6.50;1.70;;;16.90;99.90;;;;;;5043017;28;20044;-64
2022/10/24 10:54:30;;;;;;;4.18;1.40;;;17.00;99.90;;;;;;5043149;28;20033;-64
2022/10/24 10:57:01;;;;;;;5.72;1.50;;;17.10;99.90;;;;;;5045773;28;20045;-64
2022/10/24 10:59:39;;;;;;;7.53;1.97;;;17.20;99.90;;;;;;5045852;28;20448;-64
2022/10/24 11:02:39;;;;;;;6.40;1.60;;;17.20;99.90;;;;;;5049457;28;20402;-64
2022/10/24 11:05:25;;;;;;;5.78;1.80;;;17.20;99.90;;;;;;5040348;28;20472;-64
2022/10/24 11:07:55;;;;;;;5.75;1.25;;;17.20;99.90;;;;;;5043979;28;20037;-64
2022/10/24 11:10:25;;;;;;;9.32;1.65;;;17.30;99.90;;;;;;5048377;28;20065;-64
2022/10/24 11:12:53;;;;;;;5.80;1.50;;;17.30;99.90;;;;;;5034597;28;20030;-64
2022/10/24 11:15:23;;;;;;;11.07;2.40;;;17.30;99.90;;;;;;5065216;28;20025;-64
2022/10/24 11:18:10;;;;;;;5.82;1.50;;;17.30;99.90;;;;;;5048259;28;20049;-64
2022/10/24 11:20:52;;;;;;;4.63;1.25;;;17.30;99.90;;;;;;5041299;28;20036;-64
2022/10/24 11:23:30;;;;;;;4.72;1.63;;;17.40;99.90;;;;;;5048049;28;20041;-64
2022/10/24 11:26:02;;;;;;;5.00;1.60;;;17.50;99.90;;;;;;5049227;28;20040;-64
2022/10/24 11:28:31;;;;;;;6.38;1.75;;;17.40;99.90;;;;;;5052173;28;20044;-64
2022/10/24 11:31:16;;;;;;;3.78;1.20;;;17.30;99.90;;;;;;5037375;28;20052;-64
2022/10/24 11:34:10;;;;;;;5.20;1.23;;;17.30;99.90;;;;;;5046431;28;20048;-63
2022/10/24 11:36:44;;;;;;;5.32;1.23;;;17.20;99.90;;;;;;5048154;28;20041;-64
2022/10/24 11:39:28;;;;;;;6.20;1.20;;;17.20;99.90;;;;;;5041053;28;20045;-63
2022/10/24 11:42:27;;;;;;;6.82;1.40;;;17.20;99.90;;;;;;5050786;28;20045;-63
2022/10/24 11:45:02;;;;;;;25.33;2.50;;;17.10;99.90;;;;;;5040961;28;20488;-63
2022/10/24 11:47:27;;;;;;;5.45;1.30;;;17.10;99.90;;;;;;5040177;28;20082;-64
2022/10/24 11:50:11;;;;;;;4.18;1.40;;;17.20;99.90;;;;;;5044401;28;20037;-63
2022/10/24 11:53:19;;;;;;;10.45;1.48;;;17.20;99.90;;;;;;5047510;28;20095;-64
2022/10/24 11:56:11;;;;;;;4.35;1.17;;;17.30;99.90;;;;;;5048216;28;20530;-63
2022/10/24 11:58:52;;;;;;;7.05;1.98;;;17.30;99.90;;;;;;5048460;28;20068;-64
2022/10/24 12:01:44;;;;;;;5.32;1.20;;;17.20;99.90;;;;;;5045141;28;20037;-64
2022/10/24 12:04:29;;;;;;;5.65;1.92;;;17.20;99.90;;;;;;5040882;28;20426;-64
2022/10/24 12:07:04;;;;;;;7.60;1.50;;;17.10;99.90;;;;;;5049884;28;20044;-63
2022/10/24 12:10:11;;;;;;;5.65;1.23;;;17.00;99.90;;;;;;5039791;28;20044;-63
2022/10/24 12:12:37;;;;;;;5.18;1.52;;;17.00;99.90;;;;;;5034730;28;20041;-63
2022/10/24 12:15:35;;;;;;;7.20;1.45;;;17.00;99.90;;;;;;5050913;28;20530;-63
2022/10/24 12:18:34;;;;;;;22.88;1.63;;;17.00;99.90;;;;;;5049052;28;20092;-63
2022/10/24 12:21:17;;;;;;;7.15;1.40;;;17.00;99.90;;;;;;5048121;28;20128;-63
2022/10/24 12:23:53;;;;;;;11.25;1.45;;;16.90;99.90;;;;;;5045991;28;20112;-63
2022/10/24 12:26:23;;;;;;;10.40;1.75;;;16.80;99.90;;;;;;5035870;28;20033;-63
2022/10/24 12:29:05;;;;;;;4.43;1.27;;;16.80;99.90;;;;;;5034013;28;20048;-63
2022/10/24 12:31:37;;;;;;;7.00;1.45;;;16.90;99.90;;;;;;5042248;28;20068;-63
2022/10/24 12:34:18;;;;;;;;;;;16.90;99.90;;;;;;5048446;28;20049;-63
2022/10/24 12:37:02;;;;;;;4.63;1.40;;;17.00;99.90;;;;;;5033816;28;19928;-63
2022/10/24 12:39:41;;;;;;;6.00;1.42;;;17.10;99.90;;;;;;5049499;28;20033;-63
2022/10/24 12:42:35;;;;;;;4.95;1.60;;;17.00;99.90;;;;;;5043253;28;20403;-63
2022/10/24 12:45:04;;;;;;;6.32;1.35;;;17.20;99.90;;;;;;5046284;28;20041;-63
2022/10/24 12:47:38;;;;;;;6.43;1.70;;;17.30;99.90;;;;;;5044309;28;20536;-63
2022/10/24 12:50:22;;;;;;;4.90;1.23;;;17.30;99.90;;;;;;5044116;28;20057;-63
2022/10/24 12:52:53;;;;;;;3.92;1.00;;;17.20;99.90;;;;;;5040300;28;20067;-63
2022/10/24 12:55:40;;;;;;;6.32;1.55;;;17.10;99.90;;;;;;5039376;28;20040;-63
2022/10/24 12:58:30;;;;;;;5.80;1.27;;;17.10;99.90;;;;;;5043969;28;21736;-64
2022/10/24 13:01:19;;;;;;;6.85;1.45;;;17.00;99.90;;;;;;5041097;28;20064;-63
2022/10/24 13:03:54;;;;;;;6.38;1.40;;;17.00;99.90;;;;;;5041928;28;20105;-63
2022/10/24 13:06:29;;;;;;;6.63;1.58;;;16.90;99.90;;;;;;5042695;28;20048;-63